Time;durP1;ratioP1;P1;durP2;ratioP2;P2;SDS_P1;SDS_P2;PMS_P1;PMS_P2;Temp;Humidity;BMP_temperature;BMP_pressure;BME280_temperature;BME280_humidity;BME280_pressure;Samples;Min_cycle;Max_cycle;Signal;HPM_P1;HPM_P2
2022/04/15 00:01:46;;;;;;;29.10;11.95;;;;;;;6.68;58.22;99552.91;1745107;82;20993;-91
2022/04/15 00:04:12;;;;;;;37.50;12.43;;;;;;;6.66;60.67;99549.47;1750498;82;20983;-90
2022/04/15 00:06:39;;;;;;;33.98;12.78;;;;;;;6.64;60.01;99549.91;1751170;80;21579;-91
2022/04/15 00:09:06;;;;;;;32.13;12.55;;;;;;;6.61;60.29;99544.76;1780779;79;20966;-92
2022/04/15 00:11:33;;;;;;;36.17;14.38;;;;;;;6.59;61.21;99537.00;1777493;78;21038;-86
2022/04/15 00:14:00;;;;;;;33.63;13.35;;;;;;;6.57;62.47;99535.70;1777517;78;21048;-87
2022/04/15 00:16:27;;;;;;;32.40;14.03;;;;;;;6.55;61.12;99538.73;1792538;79;21095;-91
2022/04/15 00:18:53;;;;;;;30.68;13.22;;;;;;;6.52;62.96;99538.72;1793822;79;21126;-92
2022/04/15 00:21:20;;;;;;;28.55;12.73;;;;;;;6.48;62.07;99531.84;1793822;80;21003;-88
2022/04/15 00:23:48;;;;;;;31.87;12.88;;;;;;;6.44;62.21;99527.54;1795904;80;21047;-86
2022/04/15 00:26:15;;;;;;;30.12;13.60;;;;;;;6.42;62.06;99527.98;1768222;79;21035;-85
2022/04/15 00:28:41;;;;;;;29.23;12.47;;;;;;;6.40;61.80;99530.99;1692690;79;21068;-91
2022/04/15 00:31:08;;;;;;;33.58;13.98;;;;;;;6.37;63.55;99525.41;1641489;87;21049;-91
2022/04/15 00:33:35;;;;;;;33.98;12.65;;;;;;;6.36;62.30;99526.25;1668928;85;21357;-91
2022/04/15 00:36:02;;;;;;;36.00;13.25;;;;;;;6.33;61.85;99519.82;1676463;83;21102;-92
2022/04/15 00:38:29;;;;;;;35.15;13.40;;;;;;;6.33;62.04;99522.84;1708954;81;21075;-91
2022/04/15 00:40:56;;;;;;;32.45;12.43;;;;;;;6.30;63.19;99522.83;1762810;80;21576;-91
2022/04/15 00:43:23;;;;;;;31.23;12.55;;;;;;;6.28;61.50;99517.66;1789464;80;21571;-91
2022/04/15 00:45:49;;;;;;;28.05;11.43;;;;;;;6.25;63.49;99513.81;1812235;79;20967;-90
2022/04/15 00:48:19;;;;;;;29.67;11.45;;;;;;;6.23;63.11;99516.82;1789488;79;20967;-89
2022/04/15 00:50:46;;;;;;;25.57;11.45;;;;;;;6.20;61.88;99515.95;1784303;78;21049;-90
2022/04/15 00:53:17;;;;;;;33.80;12.93;;;;;;;6.15;61.43;99513.39;1764827;81;21032;-90
2022/04/15 00:55:42;;;;;;;28.27;12.33;;;;;;;6.14;62.48;99515.53;1831563;78;21075;-88
2022/04/15 00:58:10;;;;;;;25.85;11.05;;;;;;;6.11;62.80;99518.98;1752049;78;21142;-90
2022/04/15 01:00:38;;;;;;;31.93;12.28;;;;;;;6.09;63.66;99523.72;1764434;81;21083;-88
2022/04/15 01:03:06;;;;;;;28.30;11.90;;;;;;;6.07;62.28;99531.86;1770501;78;21109;-89
2022/04/15 01:05:35;;;;;;;27.25;11.97;;;;;;;6.05;63.61;99530.59;1766721;77;21082;-91
2022/04/15 01:08:03;;;;;;;38.80;12.30;;;;;;;6.05;62.66;99535.76;1732025;79;21022;-90
2022/04/15 01:10:35;;;;;;;30.72;12.80;;;;;;;6.06;64.18;99531.45;1799906;79;21047;-88
2022/04/15 01:13:06;;;;;;;31.77;11.70;;;;;;;6.02;66.31;99532.31;1785443;78;21138;-89
2022/04/15 01:15:34;;;;;;;34.58;11.85;;;;;;;5.94;61.55;99538.72;1737392;78;21070;-91
2022/04/15 01:18:01;;;;;;;26.62;10.48;;;;;;;5.88;65.26;99536.99;1810750;78;21098;-88
2022/04/15 01:20:29;;;;;;;30.65;10.82;;;;;;;5.86;66.12;99536.13;1814999;77;20923;-90
2022/04/15 01:23:20;;;;;;;34.27;10.13;;;;;;;5.85;63.39;99537.41;1812242;77;21122;-89
2022/04/15 01:25:48;;;;;;;20.12;10.08;;;;;;;5.79;64.58;99537.00;1750325;80;21071;-90
2022/04/15 01:28:16;;;;;;;29.60;10.20;;;;;;;5.75;64.97;99529.67;1742411;81;21040;-89
2022/04/15 01:30:45;;;;;;;27.85;9.73;;;;;;;5.77;66.56;99529.69;1762451;79;21620;-90
2022/04/15 01:33:12;;;;;;;19.48;9.53;;;;;;;5.78;66.25;99528.37;1762624;79;21114;-90
2022/04/15 01:35:38;;;;;;;29.87;9.00;;;;;;;5.82;68.14;99529.69;1763449;81;21046;-90
2022/04/15 01:38:10;;;;;;;47.13;9.43;;;;;;;5.83;67.98;99523.24;1741790;81;21046;-89
2022/04/15 01:40:36;;;;;;;32.05;9.35;;;;;;;5.85;67.48;99520.64;1743987;77;21048;-89
2022/04/15 01:43:03;;;;;;;44.75;10.32;;;;;;;5.85;66.37;99517.66;1722411;83;21124;-89
2022/04/15 01:45:29;;;;;;;30.62;10.75;;;;;;;5.88;67.35;99518.08;1694452;83;21174;-88
2022/04/15 01:47:56;;;;;;;26.65;9.83;;;;;;;5.91;69.06;99512.49;1695493;84;21031;-89
2022/04/15 01:50:23;;;;;;;29.25;10.23;;;;;;;5.92;68.40;99518.50;1709102;84;21075;-90
2022/04/15 01:52:50;;;;;;;31.85;11.40;;;;;;;5.91;69.22;99516.80;1739508;81;21051;-89
2022/04/15 01:55:17;;;;;;;31.40;10.95;;;;;;;5.89;67.05;99516.80;1781190;80;21031;-88
2022/04/15 01:57:45;;;;;;;28.65;11.15;;;;;;;5.87;67.88;99513.35;1771905;79;20983;-89
2022/04/15 02:00:13;;;;;;;31.97;11.22;;;;;;;5.83;65.45;99518.48;1793374;78;21573;-90
2022/04/15 02:02:40;;;;;;;33.18;11.57;;;;;;;5.76;65.50;99518.48;1834889;76;20920;-89
2022/04/15 02:05:08;;;;;;;34.80;11.12;;;;;;;5.72;66.15;99510.75;1840040;76;21057;-89
2022/04/15 02:07:35;;;;;;;31.45;11.25;;;;;;;5.64;62.90;99508.16;1791509;78;21451;-90
2022/04/15 02:10:04;;;;;;;30.65;10.60;;;;;;;5.59;65.63;99503.44;1815342;79;21017;-87
2022/04/15 02:12:30;;;;;;;30.05;11.00;;;;;;;5.55;66.09;99514.58;1754491;78;21091;-90
2022/04/15 02:14:57;;;;;;;27.30;9.95;;;;;;;5.49;65.48;99506.83;1750030;82;21523;-90
2022/04/15 02:17:24;;;;;;;24.60;10.43;;;;;;;5.44;65.27;99509.84;1746096;82;21005;-90
2022/04/15 02:19:53;;;;;;;26.75;11.45;;;;;;;5.40;67.70;99505.54;1729195;82;21059;-90
2022/04/15 02:22:20;;;;;;;31.37;11.08;;;;;;;5.33;66.72;99500.38;1756394;79;21557;-90
2022/04/15 02:24:47;;;;;;;24.75;11.03;;;;;;;5.27;68.12;99499.07;1761926;81;21023;-91
2022/04/15 02:27:13;;;;;;;30.43;10.43;;;;;;;5.24;69.54;99496.47;1759261;81;21511;-88
2022/04/15 02:29:40;;;;;;;30.25;10.45;;;;;;;5.21;69.29;99502.89;1762342;81;21094;-88
2022/04/15 02:32:07;;;;;;;27.67;9.95;;;;;;;5.18;69.84;99502.46;1762225;81;21001;-89
2022/04/15 02:34:34;;;;;;;21.95;9.68;;;;;;;5.19;69.19;99508.47;1762349;81;21035;-88
2022/04/15 02:37:01;;;;;;;22.67;9.60;;;;;;;5.17;68.88;99500.75;1761986;81;21099;-88
2022/04/15 02:39:28;;;;;;;25.43;10.08;;;;;;;5.16;68.72;99507.19;1762253;81;21003;-88
2022/04/15 02:41:56;;;;;;;19.65;8.85;;;;;;;4.96;69.41;99470.60;1762253;81;21117;-88
2022/04/15 02:44:24;;;;;;;21.40;8.65;;;;;;;5.14;68.10;99499.44;1770049;80;21656;-88
2022/04/15 02:46:53;;;;;;;17.65;8.58;;;;;;;5.12;64.06;99500.30;1802619;79;21058;-90
2022/04/15 02:49:19;;;;;;;24.60;9.58;;;;;;;5.04;68.67;99496.84;1753349;76;21091;-89
2022/04/15 02:51:46;;;;;;;18.35;9.45;;;;;;;4.99;67.20;99492.94;1751392;82;21475;-88
2022/04/15 02:54:13;;;;;;;17.92;8.08;;;;;;;4.96;65.28;99490.36;1730680;82;21008;-88
2022/04/15 02:56:39;;;;;;;19.62;8.63;;;;;;;4.94;67.51;99496.80;1751661;82;21087;-90
2022/04/15 02:59:06;;;;;;;22.35;9.45;;;;;;;4.91;66.03;99501.91;1751626;82;20968;-89
2022/04/15 03:01:33;;;;;;;22.50;8.85;;;;;;;4.89;67.98;99502.34;1751437;82;21056;-87
2022/04/15 03:04:00;;;;;;;20.25;8.93;;;;;;;4.88;67.64;99498.06;1751773;82;21004;-89
2022/04/15 03:06:27;;;;;;;21.68;9.88;;;;;;;4.88;68.90;99496.77;1751768;82;21100;-90
2022/04/15 03:08:55;;;;;;;25.90;10.55;;;;;;;4.88;68.35;99493.34;1751774;82;21092;-87
2022/04/15 03:11:22;;;;;;;24.18;9.75;;;;;;;4.86;70.44;99498.48;1721359;79;21138;-88
2022/04/15 03:13:48;;;;;;;24.02;10.03;;;;;;;4.86;69.00;99495.91;1721447;82;21581;-88
2022/04/15 03:16:15;;;;;;;19.90;9.38;;;;;;;4.84;69.66;99498.90;1702462;83;21050;-88
2022/04/15 03:18:42;;;;;;;24.18;9.55;;;;;;;4.84;68.46;99493.75;1718667;82;21000;-87
2022/04/15 03:21:09;;;;;;;27.15;10.03;;;;;;;4.87;69.20;99495.03;1695530;85;21498;-89
2022/04/15 03:23:36;;;;;;;35.33;10.43;;;;;;;4.89;69.81;99495.05;1722661;82;21072;-87
2022/04/15 03:26:03;;;;;;;28.75;11.33;;;;;;;4.91;69.21;99497.20;1715422;81;21451;-88
2022/04/15 03:28:30;;;;;;;36.40;10.32;;;;;;;4.92;68.29;99498.94;1778956;79;21038;-87
2022/04/15 03:30:57;;;;;;;42.45;11.73;;;;;;;4.94;68.07;99499.80;1792672;80;21068;-87
2022/04/15 03:33:23;;;;;;;32.40;12.18;;;;;;;4.96;67.76;99499.38;1793067;80;21060;-87
2022/04/15 03:35:50;;;;;;;37.67;12.88;;;;;;;4.97;67.06;99496.82;1780958;80;20999;-87
2022/04/15 03:38:17;;;;;;;46.28;12.28;;;;;;;4.97;68.40;99494.64;1769321;80;20997;-89
2022/04/15 03:40:44;;;;;;;43.20;12.58;;;;;;;5.02;69.17;99493.40;1790821;79;21017;-89
2022/04/15 03:43:10;;;;;;;53.98;11.63;;;;;;;5.05;68.97;99501.12;1790970;80;21490;-89
2022/04/15 03:45:37;;;;;;;46.15;10.90;;;;;;;5.05;69.20;99491.66;1779491;80;21054;-89
2022/04/15 03:48:04;;;;;;;64.53;12.45;;;;;;;5.07;69.05;99498.13;1788481;80;20979;-90
2022/04/15 03:50:31;;;;;;;54.77;12.47;;;;;;;5.08;69.66;99498.13;1792797;80;21541;-90
2022/04/15 03:52:58;;;;;;;47.75;12.98;;;;;;;5.07;69.30;99491.68;1793401;80;21002;-89
2022/04/15 03:55:25;;;;;;;28.62;12.15;;;;;;;5.07;69.69;99503.27;1782076;80;21047;-89
2022/04/15 03:57:52;;;;;;;27.67;11.63;;;;;;;5.06;68.61;99501.13;1743646;80;21069;-88
2022/04/15 04:00:24;;;;;;;25.37;11.33;;;;;;;5.05;67.60;99503.27;1715073;83;21036;-89
2022/04/15 04:02:53;;;;;;;28.70;11.05;;;;;;;5.02;69.89;99509.71;1760463;80;21051;-89
2022/04/15 04:05:23;;;;;;;30.88;10.75;;;;;;;5.01;69.03;99509.27;1807109;78;21072;-91
2022/04/15 04:07:50;;;;;;;27.87;11.88;;;;;;;5.02;69.04;99507.56;1820403;79;21112;-89
2022/04/15 04:10:17;;;;;;;28.40;11.38;;;;;;;5.02;70.33;99508.42;1773960;80;21066;-88
2022/04/15 04:12:45;;;;;;;24.32;11.48;;;;;;;5.04;68.89;99513.16;1771025;80;21557;-89
2022/04/15 04:15:13;;;;;;;25.62;11.20;;;;;;;5.05;67.79;99511.00;1766229;78;21166;-88
2022/04/15 04:17:41;;;;;;;31.75;11.40;;;;;;;5.05;68.75;99508.41;1805853;78;21202;-88
2022/04/15 04:20:10;;;;;;;21.60;10.78;;;;;;;5.07;68.36;99513.15;1807165;79;21019;-85
2022/04/15 04:22:38;;;;;;;22.22;9.38;;;;;;;5.09;66.28;99517.91;1799351;78;20971;-90
2022/04/15 04:25:08;;;;;;;24.87;10.28;;;;;;;5.10;68.30;99520.91;1758689;77;21103;-89
2022/04/15 04:27:37;;;;;;;27.02;10.80;;;;;;;5.11;66.42;99525.62;1778039;80;21067;-86
2022/04/15 04:30:07;;;;;;;20.62;9.78;;;;;;;5.11;68.21;99521.36;1777081;81;21072;-83
2022/04/15 04:32:34;;;;;;;24.95;10.23;;;;;;;5.16;67.73;99520.08;1776868;79;21083;-86
2022/04/15 04:35:06;;;;;;;21.55;10.10;;;;;;;5.20;67.27;99517.09;1747045;81;21499;-82
2022/04/15 04:37:33;;;;;;;21.40;9.80;;;;;;;5.24;68.05;99514.95;1743964;82;21052;-82
2022/04/15 04:40:00;;;;;;;26.23;11.50;;;;;;;5.32;68.55;99515.83;1744204;82;21008;-82
2022/04/15 04:42:27;;;;;;;23.83;10.82;;;;;;;5.38;68.02;99515.84;1746869;78;20973;-90
2022/04/15 04:44:55;;;;;;;25.32;12.03;;;;;;;5.45;67.93;99508.97;1770165;81;21015;-90
2022/04/15 04:47:22;;;;;;;21.10;10.85;;;;;;;5.51;66.83;99521.47;1768436;77;21016;-90
2022/04/15 04:49:49;;;;;;;25.52;11.12;;;;;;;5.57;68.10;99521.48;1774280;80;21039;-91
2022/04/15 04:52:16;;;;;;;26.52;11.55;;;;;;;5.64;66.13;99515.89;1765345;77;21018;-90
2022/04/15 04:54:43;;;;;;;31.73;13.00;;;;;;;5.66;66.80;99516.76;1764383;81;21017;-87
2022/04/15 04:57:09;;;;;;;27.20;11.90;;;;;;;5.71;65.28;99518.92;1763977;79;21015;-89
2022/04/15 04:59:36;;;;;;;23.47;12.07;;;;;;;5.72;67.28;99521.06;1766257;79;21020;-90
2022/04/15 05:02:03;;;;;;;23.83;11.40;;;;;;;5.78;65.19;99519.78;1765624;81;21010;-91
2022/04/15 05:04:30;;;;;;;23.62;11.22;;;;;;;5.94;66.37;99522.80;1766662;81;21011;-91
2022/04/15 05:06:57;;;;;;;35.45;16.37;;;;;;;6.02;65.90;99527.15;1762019;81;21018;-88
2022/04/15 05:09:23;;;;;;;23.42;10.82;;;;;;;6.10;66.99;99520.26;1762835;81;21089;-90
2022/04/15 05:11:51;;;;;;;21.23;10.68;;;;;;;6.17;67.56;99529.30;1767852;81;21457;-89
2022/04/15 05:14:18;;;;;;;27.80;10.05;;;;;;;6.24;65.61;99526.27;1730483;77;21132;-88
2022/04/15 05:16:45;;;;;;;22.22;10.18;;;;;;;6.33;65.84;99527.57;1752397;82;21552;-91
2022/04/15 05:19:11;;;;;;;24.80;11.22;;;;;;;6.42;65.70;99531.85;1752020;82;21075;-91
2022/04/15 05:21:39;;;;;;;25.15;10.70;;;;;;;6.52;65.32;99534.84;1750597;82;21599;-88
2022/04/15 05:24:08;;;;;;;22.07;10.20;;;;;;;6.63;65.60;99533.99;1752745;80;21063;-88
2022/04/15 05:26:36;;;;;;;24.02;10.65;;;;;;;6.72;64.95;99530.08;1751549;78;21072;-86
2022/04/15 05:29:03;;;;;;;23.90;10.65;;;;;;;6.84;65.05;99530.47;1704692;83;21055;-90
2022/04/15 05:31:29;;;;;;;26.05;10.88;;;;;;;6.92;63.92;99532.19;1761806;81;21069;-89
2022/04/15 05:33:56;;;;;;;23.25;11.03;;;;;;;6.94;63.87;99527.87;1762153;81;21027;-92
2022/04/15 05:36:23;;;;;;;23.25;10.45;;;;;;;7.03;64.54;99535.16;1758645;80;21114;-92
2022/04/15 05:38:49;;;;;;;21.23;10.00;;;;;;;7.14;64.13;99533.38;1756527;80;20995;-91
2022/04/15 05:41:16;;;;;;;23.73;10.70;;;;;;;7.24;64.53;99526.03;1760554;81;21059;-92
2022/04/15 05:43:43;;;;;;;27.50;10.72;;;;;;;7.36;63.80;99522.49;1761169;81;21038;-89
2022/04/15 05:46:10;;;;;;;31.50;11.68;;;;;;;7.47;63.22;99527.63;1758288;80;21043;-91
2022/04/15 05:48:37;;;;;;;27.13;10.68;;;;;;;7.55;63.49;99523.27;1791773;79;21183;-93
2022/04/15 05:51:04;;;;;;;23.12;10.70;;;;;;;7.67;63.13;99523.63;1772150;81;21026;-92
2022/04/15 05:53:31;;;;;;;27.50;12.03;;;;;;;7.73;62.94;99526.17;1791804;80;20978;-93
2022/04/15 05:55:58;;;;;;;27.95;11.60;;;;;;;7.85;62.29;99527.82;1794555;79;21010;-90
2022/04/15 05:58:26;;;;;;;26.50;11.68;;;;;;;7.93;62.46;99516.97;1719689;79;21091;-91
2022/04/15 06:00:56;;;;;;;30.37;11.75;;;;;;;8.06;61.57;99517.30;1721369;81;20976;31
2022/04/15 06:03:23;;;;;;;25.05;10.85;;;;;;;8.14;62.39;99513.36;1699110;84;21112;-91
2022/04/15 06:05:50;;;;;;;26.52;11.30;;;;;;;8.27;62.16;99512.80;1666784;84;21013;-91
2022/04/15 06:08:18;;;;;;;22.35;10.50;;;;;;;8.40;61.14;99514.42;1729280;79;21124;-91
2022/04/15 06:10:45;;;;;;;25.17;10.05;;;;;;;8.49;61.40;99510.45;1699568;79;21020;-90
2022/04/15 06:13:14;;;;;;;24.47;10.55;;;;;;;8.61;60.98;99509.91;1677614;85;21078;-90
2022/04/15 06:15:51;;;;;;;22.45;11.05;;;;;;;8.70;60.38;99502.05;1719919;81;21109;-89
2022/04/15 06:18:11;;;;;;;23.30;11.00;;;;;;;8.74;59.83;99507.17;1733074;79;21033;-86
2022/04/15 06:20:41;;;;;;;24.98;10.08;;;;;;;8.83;60.08;99500.17;1733520;81;21056;-87
2022/04/15 06:23:06;;;;;;;20.80;9.93;;;;;;;8.95;60.01;99508.68;1733309;81;21116;-86
2022/04/15 06:25:33;;;;;;;19.50;10.23;;;;;;;9.06;59.73;99501.20;1761154;81;21056;-90
2022/04/15 06:27:59;;;;;;;23.73;10.45;;;;;;;9.19;59.64;99494.11;1769299;81;21007;-89
2022/04/15 06:30:27;;;;;;;19.50;10.03;;;;;;;9.31;59.56;99493.52;1770001;81;21047;-91
2022/04/15 06:32:53;;;;;;;25.35;10.68;;;;;;;9.38;58.29;99499.92;1767615;78;21092;-91
2022/04/15 06:35:20;;;;;;;23.90;10.18;;;;;;;9.46;58.82;99491.59;1770320;80;21027;-90
2022/04/15 06:37:46;;;;;;;26.55;10.00;;;;;;;9.57;58.57;99480.63;1770266;80;21036;-89
2022/04/15 06:40:13;;;;;;;20.95;10.13;;;;;;;9.61;57.95;99486.19;1770354;81;21088;-90
2022/04/15 06:42:40;;;;;;;22.67;10.60;;;;;;;9.69;57.74;99486.07;1769818;81;21038;-89
2022/04/15 06:45:09;;;;;;;22.65;11.15;;;;;;;9.80;57.90;99482.84;1811768;78;21118;-91
2022/04/15 06:47:36;;;;;;;24.85;12.07;;;;;;;9.88;57.89;99478.84;1814315;77;21027;-91
2022/04/15 06:50:03;;;;;;;23.70;11.65;;;;;;;10.01;57.91;99467.79;1819798;78;21016;-92
2022/04/15 06:52:29;;;;;;;23.60;11.05;;;;;;;10.11;57.54;99464.17;1798758;80;21022;-91
2022/04/15 06:54:57;;;;;;;35.03;11.50;;;;;;;10.22;57.44;99469.17;1783253;80;20958;-91
2022/04/15 06:57:23;;;;;;;32.53;11.90;;;;;;;10.37;57.11;99470.69;1795156;78;21081;-92
2022/04/15 06:59:50;;;;;;;34.03;14.65;;;;;;;10.51;56.87;99463.48;1798771;79;21034;-91
2022/04/15 07:02:17;;;;;;;25.45;13.45;;;;;;;10.66;56.80;99467.06;1798428;80;20979;-92
2022/04/15 07:04:43;;;;;;;27.45;13.60;;;;;;;10.79;56.37;99472.91;1798508;80;21033;-93
2022/04/15 07:07:10;;;;;;;26.37;12.37;;;;;;;10.92;56.18;99478.70;1798517;80;21045;-91
2022/04/15 07:09:36;;;;;;;21.60;10.65;;;;;;;11.04;55.38;99473.69;1798430;78;21142;-91
2022/04/15 07:12:04;;;;;;;25.90;11.22;;;;;;;11.17;55.58;99471.70;1815367;78;21070;-91
2022/04/15 07:14:33;;;;;;;27.22;10.43;;;;;;;11.31;53.48;99469.65;1811169;78;21050;-91
2022/04/15 07:17:03;;;;;;;23.22;10.60;;;;;;;11.41;54.15;99463.80;1791965;77;21087;-93
2022/04/15 07:19:32;;;;;;;21.05;10.13;;;;;;;11.51;54.04;99467.90;1767236;78;21660;-91
2022/04/15 07:21:58;;;;;;;22.90;10.35;;;;;;;11.65;54.17;99458.47;1764363;80;20964;-92
2022/04/15 07:24:27;;;;;;;26.50;9.75;;;;;;;11.69;53.61;99466.16;1764652;80;20997;-91
2022/04/15 07:26:54;;;;;;;22.22;10.03;;;;;;;11.81;53.79;99452.44;1759449;78;21110;-92
2022/04/15 07:29:21;;;;;;;23.83;9.63;;;;;;;11.91;53.19;99455.25;1770784;78;21076;-91
2022/04/15 07:31:47;;;;;;;22.27;10.38;;;;;;;12.06;53.05;99458.79;1778491;80;21019;-90
2022/04/15 07:34:14;;;;;;;20.82;9.63;;;;;;;12.21;51.80;99456.67;1791348;79;21514;-90
2022/04/15 07:39:14;;;;;;;21.60;10.15;;;;;;;12.49;50.87;99448.55;1804798;79;21551;-92
2022/04/15 07:41:41;;;;;;;;;;;;;;;12.65;51.40;99450.71;1790724;80;21041;-87
2022/04/15 07:44:11;;;;;;;17.37;8.13;;;;;;;12.81;49.61;99439.39;1787771;78;20108;31
2022/04/15 07:46:39;;;;;;;14.10;8.25;;;;;;;12.96;49.10;99439.41;1793354;79;21129;-92
2022/04/15 07:49:07;;;;;;;15.85;8.90;;;;;;;13.12;50.89;99436.28;1816898;77;21001;-87
2022/04/15 07:51:35;;;;;;;17.17;8.10;;;;;;;13.26;49.49;99437.17;1761553;77;21078;-91
2022/04/15 07:54:04;;;;;;;22.95;8.10;;;;;;;13.41;49.87;99439.81;1726785;80;21159;-91
2022/04/15 07:56:34;;;;;;;18.67;8.30;;;;;;;13.52;48.24;99438.16;1727323;80;21099;-85
2022/04/15 07:59:01;;;;;;;19.65;8.78;;;;;;;13.62;49.21;99439.56;1737356;80;21119;-91
2022/04/15 08:01:29;;;;;;;16.65;7.55;;;;;;;13.74;49.53;99434.41;1851513;78;20964;-87
2022/04/15 08:03:57;;;;;;;14.58;8.33;;;;;;;13.85;48.65;99431.00;1816895;78;21012;-88
2022/04/15 08:06:28;;;;;;;20.40;8.73;;;;;;;13.95;48.57;99426.31;1801247;78;21527;-88
2022/04/15 08:08:56;;;;;;;16.05;7.87;;;;;;;14.03;48.72;99419.06;1801350;80;21051;-87
2022/04/15 08:11:26;;;;;;;15.78;6.67;;;;;;;14.09;48.24;99417.55;1800622;80;21086;-86
2022/04/15 08:13:55;;;;;;;14.78;6.70;;;;;;;14.19;48.22;99425.94;1799129;78;21478;-85
2022/04/15 08:16:23;;;;;;;16.93;7.47;;;;;;;14.17;47.17;99417.75;1799179;79;21070;-87
2022/04/15 08:18:51;;;;;;;14.23;6.90;;;;;;;14.19;47.77;99412.86;1798610;78;20992;-87
2022/04/15 08:21:18;;;;;;;19.20;7.00;;;;;;;14.25;46.91;99407.41;1761692;81;21045;-85
2022/04/15 08:23:46;;;;;;;11.40;5.85;;;;;;;14.32;47.58;99406.73;1800856;80;21014;-87
2022/04/15 08:26:13;;;;;;;14.60;5.45;;;;;;;14.47;47.04;99400.95;1801348;80;21019;-86
2022/04/15 08:28:40;;;;;;;12.82;6.15;;;;;;;14.50;45.96;99403.91;1779536;80;20988;-88
2022/04/15 08:31:08;;;;;;;14.95;6.30;;;;;;;14.58;45.60;99402.36;1767049;81;21050;-86
2022/04/15 08:33:37;;;;;;;14.85;6.25;;;;;;;14.58;45.48;99407.59;1767032;81;21003;-87
2022/04/15 08:36:05;;;;;;;14.43;6.50;;;;;;;14.63;44.23;99392.59;1767044;81;21082;-87
2022/04/15 08:38:32;;;;;;;13.53;5.40;;;;;;;14.61;43.60;99400.48;1762244;81;21003;-88
2022/04/15 08:40:59;;;;;;;11.63;5.75;;;;;;;14.62;44.10;99381.28;1776621;79;21098;-88
2022/04/15 08:43:29;;;;;;;16.73;6.08;;;;;;;14.67;43.49;99383.72;1785090;79;21057;-86
2022/04/15 08:45:56;;;;;;;10.13;4.90;;;;;;;14.73;43.91;99379.56;1773127;81;21018;-87
2022/04/15 08:48:25;;;;;;;13.90;4.78;;;;;;;14.82;43.99;99377.91;1773292;81;21010;-88
2022/04/15 08:50:52;;;;;;;17.62;5.53;;;;;;;14.94;44.31;99379.21;1773324;81;21003;-88
2022/04/15 08:53:21;;;;;;;11.83;4.97;;;;;;;15.06;43.52;99372.62;1773328;80;21058;-88
2022/04/15 08:55:48;;;;;;;13.15;5.10;;;;;;;15.13;43.10;99367.55;1773260;81;21015;-87
2022/04/15 08:58:15;;;;;;;12.03;4.42;;;;;;;15.15;42.42;99371.42;1771039;81;21102;-88
2022/04/15 09:00:42;;;;;;;14.03;5.42;;;;;;;15.27;43.12;99360.45;1764961;81;21043;-89
2022/04/15 09:03:09;;;;;;;10.13;4.70;;;;;;;15.33;42.75;99358.89;1764865;81;20988;-89
2022/04/15 09:05:35;;;;;;;12.73;5.28;;;;;;;15.43;42.37;99352.83;1764868;81;21003;-89
2022/04/15 09:08:05;;;;;;;10.35;4.97;;;;;;;15.49;41.00;99341.62;1764669;81;21118;-88
2022/04/15 09:10:35;;;;;;;15.40;5.70;;;;;;;15.56;42.18;99351.42;1764759;81;21014;-88
2022/04/15 09:13:04;;;;;;;15.43;5.62;;;;;;;15.66;42.62;99340.94;1760570;81;21062;-89
2022/04/15 09:15:31;;;;;;;14.43;6.53;;;;;;;15.71;41.36;99340.27;1759236;82;21031;-88
2022/04/15 09:18:00;;;;;;;12.33;5.40;;;;;;;15.78;41.69;99337.45;1759206;82;21064;-88
2022/04/15 09:20:33;;;;;;;15.68;6.35;;;;;;;15.88;42.28;99334.83;1759199;82;21063;-88
2022/04/15 09:23:11;;;;;;;20.05;7.20;;;;;;;15.99;42.03;99336.97;1760158;81;21070;-88
2022/04/15 09:25:41;;;;;;;15.55;6.00;;;;;;;16.06;41.96;99324.84;1760056;82;21023;-88
2022/04/15 09:28:08;;;;;;;15.93;6.50;;;;;;;16.10;41.91;99322.47;1759924;82;21307;-88
2022/04/15 09:30:39;;;;;;;19.98;6.25;;;;;;;16.16;41.68;99311.33;1759502;80;21009;-88
2022/04/15 09:33:05;;;;;;;13.70;6.75;;;;;;;16.29;41.95;99305.91;1759969;82;21095;-88
2022/04/15 09:35:32;;;;;;;12.40;6.12;;;;;;;16.42;41.88;99303.59;1760000;82;21088;-89
2022/04/15 09:38:03;;;;;;;14.45;6.28;;;;;;;16.51;41.51;99303.15;1759846;81;21048;-88
2022/04/15 09:40:37;;;;;;;14.38;6.08;;;;;;;16.65;41.38;99297.26;1760009;82;21051;-88
2022/04/15 09:43:06;;;;;;;14.90;6.45;;;;;;;16.84;40.95;99294.66;1759962;82;20992;-88
2022/04/15 09:45:36;;;;;;;14.80;6.40;;;;;;;16.93;40.47;99285.05;1759909;82;21023;-88
2022/04/15 09:48:06;;;;;;;12.73;6.45;;;;;;;17.06;41.05;99280.88;1759913;81;21070;-88
2022/04/15 09:50:42;;;;;;;13.30;6.37;;;;;;;17.18;40.47;99276.80;1760239;81;20988;-88
2022/04/15 09:53:18;;;;;;;15.78;6.62;;;;;;;17.29;40.15;99268.41;1760107;80;21545;-88
2022/04/15 09:55:48;;;;;;;15.28;6.85;;;;;;;17.39;40.80;99263.06;1760336;82;21023;-88
2022/04/15 09:58:20;;;;;;;16.97;6.65;;;;;;;17.61;40.76;99253.63;1765179;80;21110;-88
2022/04/15 10:00:51;;;;;;;13.43;6.55;;;;;;;17.81;40.60;99253.06;1801493;79;20995;-89
2022/04/15 10:03:22;;;;;;;13.45;6.70;;;;;;;17.96;40.05;99251.42;1801477;79;20944;-89
2022/04/15 10:05:55;;;;;;;16.60;6.78;;;;;;;18.01;40.08;99248.94;1801198;80;21053;-89
2022/04/15 10:08:27;;;;;;;17.12;7.20;;;;;;;18.17;39.16;99249.44;1801599;79;20987;-89
2022/04/15 10:10:56;;;;;;;19.45;6.90;;;;;;;18.33;40.00;99242.41;1801437;79;21110;-88
2022/04/15 10:13:28;;;;;;;12.33;6.50;;;;;;;18.48;39.64;99238.06;1830084;78;21026;-89
2022/04/15 10:15:52;;;;;;;14.55;5.95;;;;;;;18.65;39.52;99234.50;1816706;78;20985;-90
2022/04/15 10:18:22;;;;;;;16.73;6.22;;;;;;;18.80;39.30;99232.81;1798673;79;21030;-89
2022/04/15 10:20:51;;;;;;;11.30;5.47;;;;;;;18.97;38.33;99231.86;1801159;80;20996;-90
2022/04/15 10:23:18;;;;;;;12.05;5.85;;;;;;;19.12;38.96;99231.43;1801371;79;20994;-90
2022/04/15 10:25:46;;;;;;;19.25;6.95;;;;;;;19.26;38.54;99221.80;1801211;80;21129;-90
2022/04/15 10:28:16;;;;;;;16.25;5.90;;;;;;;19.45;38.36;99217.58;1801353;80;21022;-89
2022/04/15 10:31:16;;;;;;;13.95;5.83;;;;;;;19.71;38.08;99214.33;1801553;80;20987;-87
2022/04/15 10:33:40;;;;;;;11.40;4.92;;;;;;;19.90;36.29;99212.78;1754831;78;21115;-86
2022/04/15 10:36:22;;;;;;;15.63;5.28;;;;;;;20.07;35.03;99208.59;1706407;82;21055;-89
2022/04/15 10:42:28;;;;;;;9.88;5.08;;;;;;;20.39;36.38;99200.44;1712416;81;21110;-89
2022/04/15 10:45:00;;;;;;;;;;;;;;;20.65;36.08;99194.37;1674010;86;21132;-89
2022/04/15 10:47:29;;;;;;;13.78;4.65;;;;;;;20.83;34.54;99193.64;1678064;86;20111;-89
2022/04/15 10:50:06;;;;;;;13.50;5.72;;;;;;;20.94;34.21;99186.80;1642127;84;21059;-89
2022/04/15 10:52:36;;;;;;;13.68;5.40;;;;;;;20.89;34.41;99187.55;1678128;84;21105;-90
2022/04/15 10:55:12;;;;;;;11.05;4.80;;;;;;;20.91;34.81;99183.89;1676970;84;21043;-89
2022/04/15 10:57:46;;;;;;;8.78;4.90;;;;;;;20.98;34.55;99185.16;1654371;84;21069;-89
2022/04/15 11:03:28;;;;;;;13.85;4.28;;;;;;;21.26;34.70;99182.81;1689393;80;21048;31
2022/04/15 11:05:58;;;;;;;11.50;4.12;;;;;;;21.47;34.23;99171.77;1710243;84;21094;-88
2022/04/15 11:08:27;;;;;;;7.92;4.12;;;;;;;21.59;33.90;99167.44;1709437;81;20999;-89
2022/04/15 11:10:58;;;;;;;13.00;4.75;;;;;;;21.76;33.29;99153.02;1721560;83;20996;-90
2022/04/15 11:13:49;;;;;;;6.47;3.25;;;;;;;22.01;32.76;99158.27;1711646;83;21040;-89
2022/04/15 11:16:18;;;;;;;8.53;3.47;;;;;;;22.23;32.27;99148.78;1709961;84;21090;-89
2022/04/15 11:18:55;;;;;;;9.85;3.67;;;;;;;22.57;31.76;99141.05;1709700;84;21605;-89
2022/04/15 11:21:24;;;;;;;12.30;3.37;;;;;;;22.86;30.72;99135.36;1710196;84;21006;-89
2022/04/15 11:23:59;;;;;;;9.33;3.52;;;;;;;23.20;29.80;99126.58;1710738;84;21054;-89
2022/04/15 11:26:27;;;;;;;8.83;3.17;;;;;;;23.36;28.38;99122.75;1709286;84;21094;-88
2022/04/15 11:28:58;;;;;;;7.20;3.25;;;;;;;23.56;29.53;99123.36;1710861;84;21101;-89
2022/04/15 11:31:28;;;;;;;6.85;2.90;;;;;;;23.89;28.34;99112.38;1710449;84;21210;-90
2022/04/15 11:33:59;;;;;;;10.00;3.55;;;;;;;24.10;27.30;99110.30;1710806;84;21015;-90
2022/04/15 11:36:25;;;;;;;8.23;2.70;;;;;;;24.25;24.67;99107.70;1706884;84;21052;-90
2022/04/15 11:38:52;;;;;;;6.25;2.80;;;;;;;24.47;25.20;99097.98;1710066;84;21011;-89
2022/04/15 11:41:22;;;;;;;5.22;2.62;;;;;;;24.63;21.40;99098.45;1710771;84;21011;-90